Cherry Grove, Oregon
Current Conditions -  °F | °C
As of 8:53 PM on Tuesday 25 Nov 2014 (Local Time) from KHIO Reporting Station
Broken Clouds Broken Clouds  
Wind Chill: 57°   Ceiling: 6000
Heat Index: 57°   Visibility: 10mi
Dew Point: 54°   Wind: 9mph
Humidity: 89%   Direction: 190°S
Pressure: 30.27"   Gusts: NA
Location:  45.45°N, 123.24°W
Report Text: KHIO 260453Z 19008KT 10SM BKN060 14/12 A3027 RMK AO2 SLP250 T01390122
Loading
Personal Weather Stations






























Interactive Weather Map New forecast layout! Learn more

10-Day Weather Forecast

Advertisements
Track Severe Weather on mobile